Time;durP1;ratioP1;P1;durP2;ratioP2;P2;SDS_P1;SDS_P2;PMS_P1;PMS_P2;Temp;Humidity;BMP_temperature;BMP_pressure;BME280_temperature;BME280_humidity;BME280_pressure;Samples;Min_cycle;Max_cycle;Signal;HPM_P1;HPM_P2
2022/08/19 00:02:08;;;;;;;;;;;20.50;99.90;;;;;;8435397;28;19920;-70
2022/08/19 00:06:10;;;;;;;;;;;20.50;99.90;;;;;;8423443;28;19942;-70
2022/08/19 00:10:14;;;;;;;;;;;20.40;99.90;;;;;;8421322;28;20375;-70
2022/08/19 00:14:16;;;;;;;;;;;20.40;99.90;;;;;;8419782;28;19928;-70
2022/08/19 00:18:18;;;;;;;;;;;20.30;99.90;;;;;;8426219;28;19920;-70
2022/08/19 00:22:19;;;;;;;;;;;20.30;99.90;;;;;;8428679;28;20295;-70
2022/08/19 00:26:21;;;;;;;;;;;20.30;99.90;;;;;;8421659;28;19927;-70
2022/08/19 00:30:22;;;;;;;;;;;20.20;99.90;;;;;;8450092;28;19927;-70
2022/08/19 00:34:27;;;;;;;;;;;20.20;99.90;;;;;;8435182;28;19919;-70
2022/08/19 00:38:29;;;;;;;;;;;20.10;99.90;;;;;;8416141;28;19924;-70
2022/08/19 00:42:38;;;;;;;;;;;20.10;99.90;;;;;;8444014;28;19920;-70
2022/08/19 00:46:41;;;;;;;;;;;20.10;99.90;;;;;;8437268;28;19920;-70
2022/08/19 00:50:43;;;;;;;;;;;20.00;99.90;;;;;;8424354;28;19920;-70
2022/08/19 00:54:53;;;;;;;;;;;19.90;99.90;;;;;;8430307;28;20295;-70
2022/08/19 00:58:56;;;;;;;;;;;19.90;99.90;;;;;;8418184;28;19928;-70
2022/08/19 01:02:57;;;;;;;;;;;19.80;99.90;;;;;;8429175;28;19920;-70
2022/08/19 01:06:59;;;;;;;;;;;19.80;99.90;;;;;;8425149;28;19936;-70
2022/08/19 01:11:01;;;;;;;;;;;19.80;99.90;;;;;;8423098;28;19920;-70
2022/08/19 01:15:03;;;;;;;;;;;19.80;99.90;;;;;;8414870;28;20351;-70
2022/08/19 01:19:15;;;;;;;;;;;19.70;99.90;;;;;;8417713;28;19943;-70
2022/08/19 01:23:16;;;;;;;;;;;19.70;99.90;;;;;;8448292;28;19934;-70
2022/08/19 01:27:18;;;;;;;;;;;19.60;99.90;;;;;;8434910;28;19919;-70
2022/08/19 01:31:21;;;;;;;;;;;19.60;99.90;;;;;;8432566;28;19927;-70
2022/08/19 01:35:29;;;;;;;;;;;19.50;99.90;;;;;;8455928;28;19927;-70
2022/08/19 01:39:31;;;;;;;;;;;19.50;99.90;;;;;;8414389;28;19920;-70
2022/08/19 01:43:33;;;;;;;;;;;19.40;99.90;;;;;;8420525;28;20375;-70
2022/08/19 01:47:36;;;;;;;;;;;19.40;99.90;;;;;;8418544;28;20444;-70
2022/08/19 01:51:38;;;;;;;;;;;19.40;99.90;;;;;;8428004;28;19928;-70
2022/08/19 01:55:42;;;;;;;;;;;19.30;99.90;;;;;;8427135;28;19931;-70
2022/08/19 01:59:44;;;;;;;;;;;19.30;99.90;;;;;;8421373;28;19920;-70
2022/08/19 02:03:46;;;;;;;;;;;19.30;99.90;;;;;;8431829;28;20213;-70
2022/08/19 02:07:48;;;;;;;;;;;19.20;99.90;;;;;;8424254;28;19924;-70
2022/08/19 02:11:50;;;;;;;;;;;19.20;99.90;;;;;;8431175;28;19931;-70
2022/08/19 02:15:52;;;;;;;;;;;19.10;99.90;;;;;;8435893;28;19973;-70
2022/08/19 02:19:53;;;;;;;;;;;19.10;99.90;;;;;;8441304;28;19920;-70
2022/08/19 02:23:55;;;;;;;;;;;19.10;99.90;;;;;;8439400;28;19919;-70
2022/08/19 02:27:57;;;;;;;;;;;19.10;99.90;;;;;;8438352;28;19919;-70
2022/08/19 02:31:58;;;;;;;;;;;19.10;99.90;;;;;;8450501;28;19932;-70
2022/08/19 02:36:02;;;;;;;;;;;19.00;99.90;;;;;;8409154;28;19924;-70
2022/08/19 02:40:04;;;;;;;;;;;19.00;99.90;;;;;;8419881;27;20295;-70
2022/08/19 02:44:13;;;;;;;;;;;19.00;99.90;;;;;;8420933;28;19935;-70
2022/08/19 02:48:32;;;;;;;;;;;18.90;99.90;;;;;;8438198;28;20283;-70
2022/08/19 02:52:34;;;;;;;;;;;18.80;99.90;;;;;;8433309;28;19920;-70
2022/08/19 02:56:37;;;;;;;;;;;18.80;99.90;;;;;;8423921;28;19920;-70
2022/08/19 03:00:46;;;;;;;;;;;18.80;99.90;;;;;;8435884;28;19924;-70
2022/08/19 03:04:48;;;;;;;;;;;18.70;99.90;;;;;;8440115;28;19927;-70
2022/08/19 03:08:50;;;;;;;;;;;18.70;99.90;;;;;;8424747;28;19925;-70
2022/08/19 03:12:51;;;;;;;;;;;18.60;99.90;;;;;;8432423;28;20533;-70
2022/08/19 03:16:53;;;;;;;;;;;18.60;99.90;;;;;;8431589;28;20290;-70
2022/08/19 03:20:55;;;;;;;;;;;18.50;99.90;;;;;;8405198;28;20372;-70
2022/08/19 03:24:58;;;;;;;;;;;18.50;99.90;;;;;;8424639;28;20405;-71
2022/08/19 03:29:04;;;;;;;;;;;18.50;99.90;;;;;;8422130;28;20359;-70
2022/08/19 03:33:07;;;;;;;;;;;18.40;99.90;;;;;;8419848;28;19924;-70
2022/08/19 03:37:11;;;;;;;;;;;18.40;99.90;;;;;;8419571;28;19927;-70
2022/08/19 03:41:15;;;;;;;;;;;18.40;99.90;;;;;;8425156;28;19920;-70
2022/08/19 03:45:16;;;;;;;;;;;18.40;99.90;;;;;;8440725;28;19931;-70
2022/08/19 03:49:19;;;;;;;;;;;18.40;99.90;;;;;;8432604;28;19924;-70
2022/08/19 03:53:21;;;;;;;;;;;18.30;99.90;;;;;;8395353;28;19946;-70
2022/08/19 03:57:22;;;;;;;;;;;18.30;99.90;;;;;;8428061;27;20261;-70
2022/08/19 04:01:32;;;;;;;;;;;18.30;99.90;;;;;;8423225;28;20387;-70
2022/08/19 04:05:37;;;;;;;;;;;18.20;99.90;;;;;;8427055;28;19985;-70
2022/08/19 04:09:39;;;;;;;;;;;18.10;99.90;;;;;;8440971;28;19927;-70
2022/08/19 04:13:42;;;;;;;;;;;18.10;99.90;;;;;;8437179;28;19920;-70
2022/08/19 04:17:43;;;;;;;;;;;18.10;99.90;;;;;;8417323;28;19927;-70
2022/08/19 04:21:46;;;;;;;;;;;18.00;99.90;;;;;;8421945;28;19924;-70
2022/08/19 04:25:48;;;;;;;;;;;18.00;99.90;;;;;;8432787;28;19924;-70
2022/08/19 04:29:49;;;;;;;;;;;18.00;99.90;;;;;;8419482;28;19927;-69
2022/08/19 04:33:52;;;;;;;;;;;18.00;99.90;;;;;;8447539;28;20014;-70
2022/08/19 04:37:54;;;;;;;;;;;18.00;99.90;;;;;;8415616;28;19919;-70
2022/08/19 04:46:17;;;;;;;;;;;17.90;99.90;;;;;;8427139;28;19928;-69
2022/08/19 04:50:42;;;;;;;;;;;17.90;99.90;;;;;;8405396;28;19955;-69
2022/08/19 04:54:44;;;;;;;;;;;17.80;99.90;;;;;;8429725;28;19927;-70
2022/08/19 04:58:46;;;;;;;;;;;17.80;99.90;;;;;;8435280;28;19924;-69
2022/08/19 05:02:48;;;;;;;;;;;17.80;99.90;;;;;;8435787;28;19920;-69
2022/08/19 05:06:52;;;;;;;;;;;17.80;99.90;;;;;;8434792;28;19928;-70
2022/08/19 05:10:53;;;;;;;;;;;17.80;99.90;;;;;;8414532;28;19954;-69
2022/08/19 05:14:56;;;;;;;;;;;17.80;99.90;;;;;;8418395;28;19920;-70
2022/08/19 05:23:18;;;;;;;;;;;17.80;99.90;;;;;;8452941;28;19927;-69
2022/08/19 05:27:23;;;;;;;;;;;17.90;99.90;;;;;;8437093;28;20252;-69
2022/08/19 05:31:25;;;;;;;;;;;17.90;99.90;;;;;;8416529;28;20371;-69
2022/08/19 05:35:27;;;;;;;;;;;17.90;99.90;;;;;;8414044;28;19931;-69
2022/08/19 05:39:30;;;;;;;;;;;18.00;99.90;;;;;;8396520;28;19923;-70
2022/08/19 05:43:32;;;;;;;;;;;18.00;99.90;;;;;;8406035;28;20319;-69
2022/08/19 05:47:34;;;;;;;;;;;18.00;99.90;;;;;;8414305;28;19927;-69
2022/08/19 05:51:39;;;;;;;;;;;18.00;99.90;;;;;;8457175;28;19926;-69
2022/08/19 05:55:40;;;;;;;;;;;18.10;99.90;;;;;;8414011;28;20382;-69
2022/08/19 05:59:43;;;;;;;;;;;18.10;99.90;;;;;;8428543;28;19923;-69
2022/08/19 06:03:45;;;;;;;;;;;18.20;99.90;;;;;;8445144;28;20364;-69
2022/08/19 06:07:47;;;;;;;;;;;18.20;99.90;;;;;;8395182;28;19935;-69
2022/08/19 06:11:53;;;;;;;;;;;18.30;99.90;;;;;;8451208;28;19959;-69
2022/08/19 06:15:56;;;;;;;;;;;18.40;99.90;;;;;;8445014;28;19920;-70
2022/08/19 06:19:58;;;;;;;;;;;18.50;99.90;;;;;;8443598;28;19927;-70
2022/08/19 06:24:00;;;;;;;;;;;18.60;99.90;;;;;;8447853;28;20358;-70
2022/08/19 06:28:02;;;;;;;;;;;18.70;99.90;;;;;;8424197;28;19924;-70
2022/08/19 06:32:19;;;;;;;;;;;18.80;99.90;;;;;;8453479;28;19927;-70
2022/08/19 06:36:33;;;;;;;;;;;18.70;99.90;;;;;;8441699;28;19920;-70
2022/08/19 06:40:36;;;;;;;;;;;18.80;99.90;;;;;;8422224;28;19920;-69
2022/08/19 06:44:39;;;;;;;;;;;18.80;99.90;;;;;;8447944;28;19977;-69
2022/08/19 06:48:43;;;;;;;;;;;18.90;99.90;;;;;;8440981;28;19926;-69
2022/08/19 06:52:47;;;;;;;;;;;18.90;99.90;;;;;;8448085;28;19919;-69
2022/08/19 06:56:49;;;;;;;;;;;18.90;99.90;;;;;;8437621;28;19924;-69
2022/08/19 07:00:51;;;;;;;;;;;18.90;99.90;;;;;;8431866;28;19920;-70
2022/08/19 07:04:52;;;;;;;;;;;18.90;99.90;;;;;;8457937;28;19919;-70
2022/08/19 07:08:54;;;;;;;;;;;18.90;99.90;;;;;;8438509;28;19920;-70
2022/08/19 07:12:56;;;;;;;;;;;19.00;99.90;;;;;;8432261;28;19927;-70
2022/08/19 07:16:57;;;;;;;;;;;19.00;99.90;;;;;;8427303;28;20294;-70
2022/08/19 07:21:04;;;;;;;;;;;19.00;99.90;;;;;;8459525;28;20367;-70
2022/08/19 07:25:06;;;;;;;;;;;19.00;99.90;;;;;;8427044;28;19926;-70
2022/08/19 07:29:08;;;;;;;;;;;19.10;99.90;;;;;;8423444;28;19939;-70
2022/08/19 07:33:10;;;;;;;;;;;19.10;99.90;;;;;;8434929;28;19920;-70
2022/08/19 07:37:12;;;;;;;;;;;19.20;99.90;;;;;;8404234;28;20008;-70
2022/08/19 07:41:20;;;;;;;;;;;19.20;99.90;;;;;;8439759;28;19935;-69
2022/08/19 07:45:21;;;;;;;;;;;19.20;99.90;;;;;;8439831;28;19920;-70
2022/08/19 07:49:24;;;;;;;;;;;19.30;99.90;;;;;;8427742;28;19928;-70
2022/08/19 07:53:25;;;;;;;;;;;19.30;99.90;;;;;;8414267;28;19920;-70
2022/08/19 07:57:27;;;;;;;;;;;19.30;99.90;;;;;;8420624;28;19926;-70
2022/08/19 08:01:29;;;;;;;;;;;19.40;99.90;;;;;;8417821;28;19931;-70
2022/08/19 08:09:52;;;;;;;;;;;19.60;99.90;;;;;;8419368;28;19926;-70
2022/08/19 08:13:58;;;;;;;;;;;19.70;99.90;;;;;;8407393;28;19920;-70
2022/08/19 08:18:02;;;;;;;;;;;19.70;99.90;;;;;;8421768;28;19935;-70
2022/08/19 08:22:05;;;;;;;;;;;19.80;99.90;;;;;;8444541;28;19935;-70
2022/08/19 08:26:07;;;;;;;;;;;19.80;99.90;;;;;;8432032;28;20375;-70
2022/08/19 08:30:10;;;;;;;;;;;19.90;99.90;;;;;;8448354;28;19932;-70
2022/08/19 08:34:12;;;;;;;;;;;20.00;99.90;;;;;;8440217;28;19920;-69
2022/08/19 08:38:14;;;;;;;;;;;20.10;99.90;;;;;;8431645;28;19924;-69
2022/08/19 08:42:16;;;;;;;;;;;20.10;99.90;;;;;;8424503;28;20382;-70
2022/08/19 08:46:38;;;;;;;;;;;20.20;99.90;;;;;;8427387;28;19923;-69
2022/08/19 08:50:42;;;;;;;;;;;20.30;99.90;;;;;;8443284;28;19920;-69
2022/08/19 08:54:46;;;;;;;;;;;20.40;99.90;;;;;;8423510;28;19920;-69
2022/08/19 08:59:08;;;;;;;;;;;20.50;99.90;;;;;;8433088;28;19920;-69
2022/08/19 09:03:15;;;;;;;;;;;20.70;99.90;;;;;;8423267;28;19969;-69
2022/08/19 09:07:24;;;;;;;;;;;20.70;99.90;;;;;;8455844;28;19927;-69
2022/08/19 09:11:54;;;;;;;;;;;20.90;99.90;;;;;;8438498;28;19920;-69
2022/08/19 09:16:01;;;;;;;;;;;21.00;99.90;;;;;;8426048;28;19962;-70
2022/08/19 09:20:07;;;;;;;;;;;21.10;99.90;;;;;;8428206;28;19931;-69
2022/08/19 09:24:09;;;;;;;;;;;21.10;99.90;;;;;;8424876;28;20035;-69
2022/08/19 09:28:11;;;;;;;;;;;21.20;99.90;;;;;;8441535;28;19939;-70
2022/08/19 09:32:17;;;;;;;;;;;21.10;99.90;;;;;;8429437;28;19931;-70
2022/08/19 09:36:28;;;;;;;;;;;21.10;99.90;;;;;;8423052;28;19919;-70
2022/08/19 09:40:35;;;;;;;;;;;21.10;99.90;;;;;;8437383;28;19959;-70
2022/08/19 09:44:39;;;;;;;;;;;21.20;99.90;;;;;;8437863;28;20378;-70
2022/08/19 09:48:42;;;;;;;;;;;21.20;99.90;;;;;;8455946;28;19920;-70
2022/08/19 09:52:44;;;;;;;;;;;21.20;99.90;;;;;;8453867;28;20393;-70
2022/08/19 09:56:58;;;;;;;;;;;21.20;99.90;;;;;;8429139;28;19965;-70
2022/08/19 10:01:01;;;;;;;;;;;21.20;99.90;;;;;;8440014;28;19943;-70
2022/08/19 10:09:23;;;;;;;;;;;21.40;99.90;;;;;;8451187;28;19927;-70
2022/08/19 10:13:28;;;;;;;;;;;21.50;99.90;;;;;;8425317;28;20073;-69
2022/08/19 10:17:30;;;;;;;;;;;21.60;99.90;;;;;;8412980;28;19924;-70
2022/08/19 10:21:34;;;;;;;;;;;21.70;99.90;;;;;;8420032;28;19923;-70
2022/08/19 10:25:35;;;;;;;;;;;21.70;99.90;;;;;;8434057;28;19924;-70
2022/08/19 10:29:37;;;;;;;;;;;21.70;99.90;;;;;;8436233;28;19981;-70
2022/08/19 10:33:39;;;;;;;;;;;21.70;99.90;;;;;;8449384;28;19920;-70
2022/08/19 10:37:58;;;;;;;;;;;21.80;99.90;;;;;;8417234;28;19974;-70
2022/08/19 10:42:06;;;;;;;;;;;21.90;99.90;;;;;;8452866;28;20628;-70
2022/08/19 10:46:08;;;;;;;;;;;22.10;99.90;;;;;;8446730;28;20350;-70
2022/08/19 10:58:56;;;;;;;;;;;22.30;99.90;;;;;;8429398;28;19935;-70
2022/08/19 11:02:58;;;;;;;;;;;22.30;99.90;;;;;;8429035;28;19924;-70
2022/08/19 11:06:59;;;;;;;;;;;22.30;99.90;;;;;;8434772;28;19931;-70
2022/08/19 11:11:02;;;;;;;;;;;22.30;99.90;;;;;;8430915;28;19920;-70
2022/08/19 11:15:05;;;;;;;;;;;22.30;99.90;;;;;;8446981;28;19923;-70
2022/08/19 11:19:09;;;;;;;;;;;22.30;99.90;;;;;;8452499;28;19929;-70
2022/08/19 11:23:11;;;;;;;;;;;22.40;99.90;;;;;;8441977;28;19927;-70
2022/08/19 11:27:14;;;;;;;;;;;22.50;99.90;;;;;;8444934;28;19936;-70
2022/08/19 11:31:17;;;;;;;;;;;22.60;99.90;;;;;;8449377;27;19923;-70
2022/08/19 11:35:19;;;;;;;;;;;22.70;99.90;;;;;;8455209;28;20416;-70
2022/08/19 11:39:22;;;;;;;;;;;22.90;99.90;;;;;;8422719;28;19923;-70
2022/08/19 11:43:24;;;;;;;;;;;23.10;99.90;;;;;;8440399;28;19919;-70
2022/08/19 11:47:26;;;;;;;;;;;23.20;99.90;;;;;;8441239;28;20232;-70
2022/08/19 11:51:28;;;;;;;;;;;23.30;99.90;;;;;;8422036;28;19927;-70
2022/08/19 11:55:29;;;;;;;;;;;23.40;99.90;;;;;;8442791;28;19923;-70
2022/08/19 11:59:31;;;;;;;;;;;23.40;99.90;;;;;;8441262;28;20309;-70
2022/08/19 12:03:33;;;;;;;;;;;23.50;99.90;;;;;;8438365;28;20216;-70
2022/08/19 12:07:35;;;;;;;;;;;23.50;99.90;;;;;;8453470;28;19920;-69
2022/08/19 12:11:38;;;;;;;;;;;23.60;99.90;;;;;;8447064;28;19920;-70
2022/08/19 12:15:44;;;;;;;;;;;23.60;99.90;;;;;;8434528;28;19943;-70
2022/08/19 12:19:46;;;;;;;;;;;23.70;99.90;;;;;;8437675;28;19924;-69
2022/08/19 12:23:51;;;;;;;;;;;23.70;99.90;;;;;;8448028;28;19946;-70
2022/08/19 12:27:56;;;;;;;;;;;23.60;99.90;;;;;;8435600;28;19921;-70
2022/08/19 12:32:00;;;;;;;;;;;23.50;99.90;;;;;;8438677;28;19930;-70
2022/08/19 12:36:04;;;;;;;;;;;23.40;99.90;;;;;;8437792;28;19924;-70
2022/08/19 12:40:05;;;;;;;;;;;23.50;99.90;;;;;;8432324;28;20255;-70
2022/08/19 12:44:07;;;;;;;;;;;23.60;99.90;;;;;;8441477;28;19927;-70
2022/08/19 12:48:09;;;;;;;;;;;23.70;99.90;;;;;;8445059;28;19927;-70
2022/08/19 12:52:31;;;;;;;;;;;23.90;99.90;;;;;;8422680;28;20049;-70
2022/08/19 12:56:33;;;;;;;;;;;24.00;99.90;;;;;;8426115;28;20266;-70
2022/08/19 13:00:34;;;;;;;;;;;24.00;99.90;;;;;;8425287;28;19920;-70
2022/08/19 13:04:40;;;;;;;;;;;23.90;99.90;;;;;;8448923;27;19929;-70
2022/08/19 13:08:41;;;;;;;;;;;23.90;99.90;;;;;;8458651;28;19946;-70
2022/08/19 13:12:45;;;;;;;;;;;23.90;99.90;;;;;;8433867;28;19931;-70
2022/08/19 13:16:47;;;;;;;;;;;23.80;99.90;;;;;;8434083;28;19919;-70
2022/08/19 13:20:48;;;;;;;;;;;23.80;99.90;;;;;;8443747;28;19923;-70
2022/08/19 13:24:53;;;;;;;;;;;23.70;99.90;;;;;;8434874;28;19920;-70
2022/08/19 13:33:16;;;;;;;;;;;23.50;99.90;;;;;;8445511;28;19942;-70
2022/08/19 13:37:40;;;;;;;;;;;23.50;99.90;;;;;;8420586;28;19920;-70
2022/08/19 13:41:43;;;;;;;;;;;23.40;99.90;;;;;;8436843;28;19923;-70
2022/08/19 13:45:44;;;;;;;;;;;23.30;99.90;;;;;;8435982;28;19924;-70
2022/08/19 13:49:47;;;;;;;;;;;23.20;99.90;;;;;;8424514;28;19936;-70
2022/08/19 13:53:50;;;;;;;;;;;22.90;99.90;;;;;;8422148;28;19935;-70
2022/08/19 13:57:55;;;;;;;;;;;22.60;99.90;;;;;;8422104;28;19920;-70
2022/08/19 14:01:57;;;;;;;;;;;22.30;99.90;;;;;;8443515;28;19931;-70
2022/08/19 14:05:59;;;;;;;;;;;22.10;99.90;;;;;;8402883;28;19928;-69
2022/08/19 14:10:01;;;;;;;;;;;22.00;99.90;;;;;;8423040;28;20027;-70
2022/08/19 14:14:03;;;;;;;;;;;21.90;99.90;;;;;;8415360;28;19920;-70
2022/08/19 14:18:05;;;;;;;;;;;21.90;99.90;;;;;;8407625;28;20271;-70
2022/08/19 14:22:06;;;;;;;;;;;21.70;99.90;;;;;;8393245;28;20529;-70
2022/08/19 14:26:13;;;;;;;;;;;21.70;99.90;;;;;;8417961;28;19932;-70
2022/08/19 14:30:16;;;;;;;;;;;21.70;99.90;;;;;;8409119;28;20371;-70
2022/08/19 14:34:18;;;;;;;;;;;21.70;99.90;;;;;;8401096;28;19947;-70
2022/08/19 14:38:20;;;;;;;;;;;21.70;99.90;;;;;;8391204;28;19920;-70
2022/08/19 14:42:22;;;;;;;;;;;21.70;99.90;;;;;;8414491;28;19920;-70
2022/08/19 14:46:25;;;;;;;;;;;21.80;99.90;;;;;;8428918;27;19920;-70
2022/08/19 14:50:28;;;;;;;;;;;21.90;99.90;;;;;;8407838;28;19920;-69
2022/08/19 14:54:30;;;;;;;;;;;21.90;99.90;;;;;;8413322;28;20481;-69
2022/08/19 14:58:31;;;;;;;;;;;22.00;99.90;;;;;;8419798;28;19926;-70
2022/08/19 15:02:38;;;;;;;;;;;22.10;99.90;;;;;;8408051;28;20413;-70
2022/08/19 15:06:42;;;;;;;;;;;22.20;99.90;;;;;;8416702;28;19935;-70
2022/08/19 15:10:43;;;;;;;;;;;22.30;99.90;;;;;;8412554;28;19932;-70
2022/08/19 15:14:49;;;;;;;;;;;22.40;99.90;;;;;;8415731;28;19924;-70
2022/08/19 15:18:55;;;;;;;;;;;22.50;99.90;;;;;;8394143;28;19928;-70
2022/08/19 15:22:58;;;;;;;;;;;22.60;99.90;;;;;;8416796;28;20376;-69
2022/08/19 15:27:00;;;;;;;;;;;22.70;99.90;;;;;;8414278;28;19932;-69
2022/08/19 15:31:03;;;;;;;;;;;22.90;99.90;;;;;;8393503;28;20371;-69
2022/08/19 15:35:05;;;;;;;;;;;22.90;99.90;;;;;;8417697;28;20260;-69
2022/08/19 15:39:08;;;;;;;;;;;23.10;99.90;;;;;;8404206;28;20294;-70
2022/08/19 15:43:10;;;;;;;;;;;23.30;99.90;;;;;;8413192;28;19974;-70
2022/08/19 15:47:12;;;;;;;;;;;23.40;99.90;;;;;;8419202;28;19924;-70
2022/08/19 15:51:14;;;;;;;;;;;23.50;99.90;;;;;;8411485;28;19924;-69
2022/08/19 15:55:21;;;;;;;;;;;23.50;99.90;;;;;;8414193;28;19925;-70
2022/08/19 16:08:17;;;;;;;;;;;24.50;99.90;;;;;;8444757;28;20276;-70
2022/08/19 16:12:19;;;;;;;;;;;24.90;99.90;;;;;;8406464;28;19932;-70
2022/08/19 16:16:21;;;;;;;;;;;25.00;99.90;;;;;;8387851;28;19924;-70
2022/08/19 16:20:23;;;;;;;;;;;24.80;99.90;;;;;;8387674;28;19977;-70
2022/08/19 16:24:26;;;;;;;;;;;24.50;99.90;;;;;;8394282;28;19931;-70
2022/08/19 16:28:28;;;;;;;;;;;24.20;99.90;;;;;;8389224;28;19998;-70
2022/08/19 16:32:30;;;;;;;;;;;24.00;99.90;;;;;;8388491;28;19932;-70
2022/08/19 16:36:32;;;;;;;;;;;23.90;99.90;;;;;;8387786;28;19933;-70
2022/08/19 16:40:34;;;;;;;;;;;23.70;99.90;;;;;;8388389;28;19932;-70
2022/08/19 16:44:38;;;;;;;;;;;23.50;99.90;;;;;;8394733;28;19928;-70
2022/08/19 16:48:41;;;;;;;;;;;23.50;99.90;;;;;;8385958;28;19981;-70
2022/08/19 16:52:46;;;;;;;;;;;23.40;99.90;;;;;;8367651;28;19928;-70
2022/08/19 16:56:49;;;;;;;;;;;23.40;99.90;;;;;;8390721;28;20375;-69
2022/08/19 17:00:52;;;;;;;;;;;23.40;99.90;;;;;;8402005;27;19928;-70
2022/08/19 17:04:54;;;;;;;;;;;23.30;99.90;;;;;;8385515;28;20284;-70
2022/08/19 17:08:59;;;;;;;;;;;23.30;99.90;;;;;;8387169;28;19925;-70
2022/08/19 17:13:01;;;;;;;;;;;23.20;99.90;;;;;;8388738;28;20379;-70
2022/08/19 17:17:03;;;;;;;;;;;23.20;99.90;;;;;;8389798;28;20275;-70
2022/08/19 17:21:05;;;;;;;;;;;23.10;99.90;;;;;;8389593;28;19924;-70
2022/08/19 17:25:06;;;;;;;;;;;23.10;99.90;;;;;;8391542;28;19932;-70
2022/08/19 17:29:08;;;;;;;;;;;23.10;99.90;;;;;;8388311;28;19929;-70
2022/08/19 17:33:10;;;;;;;;;;;23.20;99.90;;;;;;8388838;28;20376;-70
2022/08/19 17:37:14;;;;;;;;;;;23.40;99.90;;;;;;8386749;28;19923;-70
2022/08/19 17:41:16;;;;;;;;;;;23.40;99.90;;;;;;8387540;28;20939;-70
2022/08/19 17:45:19;;;;;;;;;;;23.40;99.90;;;;;;8390081;28;19932;-70
2022/08/19 17:49:21;;;;;;;;;;;23.40;99.90;;;;;;8404164;28;19939;-70
2022/08/19 17:53:22;;;;;;;;;;;23.20;99.90;;;;;;8383583;28;19924;-70
2022/08/19 17:57:24;;;;;;;;;;;23.10;99.90;;;;;;8390475;28;19924;-70
2022/08/19 18:01:26;;;;;;;;;;;23.00;99.90;;;;;;8386672;28;19931;-70
2022/08/19 18:05:32;;;;;;;;;;;22.90;99.90;;;;;;8390024;28;20248;-70
2022/08/19 18:09:35;;;;;;;;;;;22.90;99.90;;;;;;8393217;28;19924;-70
2022/08/19 18:13:42;;;;;;;;;;;22.80;99.90;;;;;;8386723;28;20371;-70
2022/08/19 18:17:44;;;;;;;;;;;22.80;99.90;;;;;;8394197;28;19927;-70
2022/08/19 18:21:46;;;;;;;;;;;22.70;99.90;;;;;;8392024;28;19928;-70
2022/08/19 18:25:48;;;;;;;;;;;22.80;99.90;;;;;;8393833;28;20028;-70
2022/08/19 18:29:49;;;;;;;;;;;22.80;99.90;;;;;;8390033;28;19929;-70
2022/08/19 18:33:51;;;;;;;;;;;22.70;99.90;;;;;;8394522;28;19933;-70
2022/08/19 18:37:53;;;;;;;;;;;22.70;99.90;;;;;;8390623;28;19932;-70
2022/08/19 18:50:41;;;;;;;;;;;22.60;99.90;;;;;;8391432;28;19995;-70
2022/08/19 18:54:45;;;;;;;;;;;22.60;99.90;;;;;;8396200;28;20363;-70
2022/08/19 18:58:49;;;;;;;;;;;22.60;99.90;;;;;;8389484;28;19931;-70
2022/08/19 19:02:53;;;;;;;;;;;22.60;99.90;;;;;;8392791;28;20384;-70
2022/08/19 19:06:55;;;;;;;;;;;22.60;99.90;;;;;;8389999;28;19939;-70
2022/08/19 19:11:03;;;;;;;;;;;22.60;99.90;;;;;;8391793;28;19924;-70
2022/08/19 19:15:05;;;;;;;;;;;22.50;99.90;;;;;;8393310;28;19924;-70
2022/08/19 19:19:11;;;;;;;;;;;22.50;99.90;;;;;;8390451;28;19932;-70
2022/08/19 19:23:13;;;;;;;;;;;22.50;99.90;;;;;;8394455;28;19979;-70
2022/08/19 19:27:17;;;;;;;;;;;22.50;99.90;;;;;;8408055;27;19948;-70
2022/08/19 19:31:25;;;;;;;;;;;22.40;99.90;;;;;;8392005;28;20013;-70
2022/08/19 19:35:28;;;;;;;;;;;22.40;99.90;;;;;;8390775;28;20023;-70
2022/08/19 19:39:30;;;;;;;;;;;22.40;99.90;;;;;;8392843;28;19929;-70
2022/08/19 19:43:47;;;;;;;;;;;22.20;99.90;;;;;;8389083;28;19928;-70
2022/08/19 19:47:58;;;;;;;;;;;22.20;99.90;;;;;;8391622;28;19924;-70
2022/08/19 19:52:00;;;;;;;;;;;22.10;99.90;;;;;;8384549;28;20023;-70
2022/08/19 19:56:03;;;;;;;;;;;22.00;99.90;;;;;;8389674;28;19929;-70
2022/08/19 20:00:07;;;;;;;;;;;22.00;99.90;;;;;;8385901;28;19925;-70
2022/08/19 20:04:08;;;;;;;;;;;21.90;99.90;;;;;;8379246;28;19928;-70
2022/08/19 20:12:31;;;;;;;;;;;21.90;99.90;;;;;;8390872;28;19928;-70
2022/08/19 20:16:32;;;;;;;;;;;21.80;99.90;;;;;;8405675;28;19944;-70
2022/08/19 20:20:34;;;;;;;;;;;21.80;99.90;;;;;;8385294;28;20383;-70
2022/08/19 20:24:37;;;;;;;;;;;21.80;99.90;;;;;;8388917;28;19959;-70
2022/08/19 20:28:39;;;;;;;;;;;21.70;99.90;;;;;;8398695;28;19935;-70
2022/08/19 20:32:47;;;;;;;;;;;21.70;99.90;;;;;;8389290;28;19924;-70
2022/08/19 20:36:49;;;;;;;;;;;21.70;99.90;;;;;;8387812;28;19925;-70
2022/08/19 20:40:51;;;;;;;;;;;21.70;99.90;;;;;;8389614;28;19970;-70
2022/08/19 20:44:53;;;;;;;;;;;21.80;99.90;;;;;;8389596;28;20482;-70
2022/08/19 20:48:55;;;;;;;;;;;21.80;99.90;;;;;;8387571;28;19928;-70
2022/08/19 20:52:57;;;;;;;;;;;21.80;99.90;;;;;;8399885;28;19924;-70
2022/08/19 20:56:59;;;;;;;;;;;21.80;99.90;;;;;;8387539;28;19935;-70
2022/08/19 21:01:01;;;;;;;;;;;21.80;99.90;;;;;;8377121;28;20370;-70
2022/08/19 21:05:04;;;;;;;;;;;21.90;99.90;;;;;;8416460;28;19927;-70
2022/08/19 21:09:06;;;;;;;;;;;21.90;99.90;;;;;;8429042;28;19927;-70
2022/08/19 21:13:08;;;;;;;;;;;21.90;99.90;;;;;;8428524;28;19924;-70
2022/08/19 21:17:10;;;;;;;;;;;21.80;99.90;;;;;;8432957;28;19931;-70
2022/08/19 21:21:11;;;;;;;;;;;21.80;99.90;;;;;;8423524;28;19931;-70
2022/08/19 21:25:14;;;;;;;;;;;21.70;99.90;;;;;;8415591;28;20198;-70
2022/08/19 21:29:15;;;;;;;;;;;21.70;99.90;;;;;;8437762;28;20298;-70
2022/08/19 21:33:17;;;;;;;;;;;21.70;99.90;;;;;;8398856;28;20023;-70
2022/08/19 21:37:19;;;;;;;;;;;21.70;99.90;;;;;;8421450;28;19924;-70
2022/08/19 21:41:25;;;;;;;;;;;21.60;99.90;;;;;;8424960;28;20348;-70
2022/08/19 21:45:28;;;;;;;;;;;21.60;99.90;;;;;;8421250;28;20311;-70
2022/08/19 21:49:30;;;;;;;;;;;21.60;99.90;;;;;;8418936;28;20271;-70
2022/08/19 21:53:32;;;;;;;;;;;21.60;99.90;;;;;;8412905;28;20466;-70
2022/08/19 21:57:35;;;;;;;;;;;21.60;99.90;;;;;;8427661;28;19927;-70
2022/08/19 22:01:36;;;;;;;;;;;21.50;99.90;;;;;;8418998;28;20434;-70
2022/08/19 22:05:38;;;;;;;;;;;21.50;99.90;;;;;;8422182;28;19924;-70
2022/08/19 22:09:40;;;;;;;;;;;21.50;99.90;;;;;;8438891;28;19932;-70
2022/08/19 22:13:42;;;;;;;;;;;21.50;99.90;;;;;;8419228;28;19924;-70
2022/08/19 22:17:43;;;;;;;;;;;21.50;99.90;;;;;;8409914;28;20405;-70
2022/08/19 22:21:45;;;;;;;;;;;21.50;99.90;;;;;;8417615;28;20261;-70
2022/08/19 22:25:47;;;;;;;;;;;21.50;99.90;;;;;;8415937;28;19928;-70
2022/08/19 22:29:48;;;;;;;;;;;21.40;99.90;;;;;;8424006;28;19928;-70
2022/08/19 22:33:53;;;;;;;;;;;21.40;99.90;;;;;;8416966;28;20438;-70
2022/08/19 22:37:54;;;;;;;;;;;21.40;99.90;;;;;;8428588;28;20311;-70
2022/08/19 22:41:56;;;;;;;;;;;21.40;99.90;;;;;;8425752;28;19924;-70
2022/08/19 22:45:58;;;;;;;;;;;21.30;99.90;;;;;;8432841;28;19935;-70
2022/08/19 22:50:00;;;;;;;;;;;21.30;99.90;;;;;;8419503;28;19928;-70
2022/08/19 22:54:02;;;;;;;;;;;21.30;99.90;;;;;;8414326;28;20384;-70
2022/08/19 22:58:04;;;;;;;;;;;21.30;99.90;;;;;;8428634;28;19932;-70
2022/08/19 23:02:06;;;;;;;;;;;21.30;99.90;;;;;;8423310;28;19927;-70
2022/08/19 23:06:08;;;;;;;;;;;21.30;99.90;;;;;;8411159;28;19931;-70
2022/08/19 23:10:10;;;;;;;;;;;21.30;99.90;;;;;;8439659;28;19924;-70
2022/08/19 23:14:13;;;;;;;;;;;21.30;99.90;;;;;;8433556;28;19924;-70
2022/08/19 23:18:14;;;;;;;;;;;21.30;99.90;;;;;;8423343;28;19924;-70
2022/08/19 23:22:17;;;;;;;;;;;21.20;99.90;;;;;;8431346;28;20244;-70
2022/08/19 23:26:19;;;;;;;;;;;21.20;99.90;;;;;;8449563;28;19924;-70
2022/08/19 23:30:26;;;;;;;;;;;21.20;99.90;;;;;;8420082;28;19932;-70
2022/08/19 23:34:28;;;;;;;;;;;21.20;99.90;;;;;;8425966;28;19931;-70
2022/08/19 23:38:31;;;;;;;;;;;21.20;99.90;;;;;;8419840;28;19949;-70
2022/08/19 23:42:33;;;;;;;;;;;21.20;99.90;;;;;;8426750;28;19932;-70
2022/08/19 23:46:35;;;;;;;;;;;21.20;99.90;;;;;;8403496;28;19924;-70
2022/08/19 23:50:51;;;;;;;;;;;21.20;99.90;;;;;;8423805;28;19974;-70
2022/08/19 23:54:53;;;;;;;;;;;21.20;99.90;;;;;;8435731;28;19924;-70
2022/08/19 23:58:54;;;;;;;;;;;21.10;99.90;;;;;;8428512;28;20302;-70
